Time;durP1;ratioP1;P1;durP2;ratioP2;P2;SDS_P1;SDS_P2;PMS_P1;PMS_P2;Temp;Humidity;BMP_temperature;BMP_pressure;BME280_temperature;BME280_humidity;BME280_pressure;Samples;Min_cycle;Max_cycle;Signal;HPM_P1;HPM_P2
2022/05/13 00:01:23;;;;;;;5.13;3.47;;;20.30;77.60;;;;;;5105101;28;20462;-75
2022/05/13 00:03:49;;;;;;;7.53;3.30;;;20.30;77.60;;;;;;5106705;28;20031;-75
2022/05/13 00:06:15;;;;;;;3.83;3.03;;;20.30;77.50;;;;;;5106793;28;20020;-76
2022/05/13 00:08:41;;;;;;;6.88;3.60;;;20.20;77.70;;;;;;5106722;28;20032;-75
2022/05/13 00:11:09;;;;;;;3.55;3.08;;;20.20;77.70;;;;;;5104808;28;20020;-77
2022/05/13 00:13:35;;;;;;;3.33;2.35;;;20.20;77.70;;;;;;5087870;28;20047;-76
2022/05/13 00:16:01;;;;;;;4.38;3.22;;;20.20;78.20;;;;;;5074532;28;20025;-76
2022/05/13 00:18:27;;;;;;;5.55;3.17;;;20.20;78.60;;;;;;5072602;28;20033;-78
2022/05/13 00:20:53;;;;;;;7.47;3.78;;;20.20;78.90;;;;;;5073574;28;20032;-81
2022/05/13 00:23:19;;;;;;;4.65;3.35;;;20.20;78.80;;;;;;5073222;28;20024;-78
2022/05/13 00:25:45;;;;;;;8.63;3.20;;;20.20;79.10;;;;;;5073974;28;20028;-79
2022/05/13 00:28:13;;;;;;;6.88;3.97;;;20.20;79.00;;;;;;5073475;28;20131;-79
2022/05/13 00:30:44;;;;;;;5.22;3.20;;;20.20;79.10;;;;;;5072306;28;20046;-80
2022/05/13 00:33:09;;;;;;;10.73;3.10;;;20.10;78.70;;;;;;5073510;28;20020;-76
2022/05/13 00:35:36;;;;;;;9.30;3.33;;;20.10;79.10;;;;;;5073584;28;20029;-79
2022/05/13 00:38:02;;;;;;;4.95;3.15;;;20.10;79.00;;;;;;5073352;28;20489;-80
2022/05/13 00:40:28;;;;;;;6.57;3.15;;;20.00;79.20;;;;;;5072099;28;20027;-77
2022/05/13 00:43:00;;;;;;;3.97;2.83;;;20.00;79.40;;;;;;5073523;28;20024;-81
2022/05/13 00:45:27;;;;;;;6.57;3.55;;;20.00;79.00;;;;;;5073686;28;20095;-80
2022/05/13 00:47:53;;;;;;;6.75;3.85;;;20.00;79.30;;;;;;5072100;28;20035;-79
2022/05/13 00:50:20;;;;;;;5.57;3.75;;;20.00;79.40;;;;;;5073314;28;20021;-81
2022/05/13 00:52:50;;;;;;;8.00;3.90;;;20.00;79.60;;;;;;5072243;28;20039;-80
2022/05/13 00:55:36;;;;;;;6.57;3.53;;;19.90;79.30;;;;;;5073352;28;20495;-78
2022/05/13 00:58:05;;;;;;;7.28;3.40;;;20.00;79.60;;;;;;5074130;28;20036;-82
2022/05/13 01:00:31;;;;;;;4.15;3.20;;;20.00;80.00;;;;;;5093543;28;20448;-82
2022/05/13 01:02:57;;;;;;;5.40;3.00;;;20.00;80.50;;;;;;5075300;28;20097;-81
2022/05/13 01:05:23;;;;;;;3.45;2.88;;;20.00;80.70;;;;;;5075221;28;20017;-77
2022/05/13 01:07:50;;;;;;;2.83;2.30;;;20.00;80.90;;;;;;5093169;28;20024;-78
2022/05/13 01:10:23;;;;;;;6.28;3.17;;;20.00;81.20;;;;;;5075152;28;20028;-81
2022/05/13 01:12:55;;;;;;;7.18;3.95;;;20.00;80.80;;;;;;5087196;28;20024;-78
2022/05/13 01:15:31;;;;;;;5.07;4.03;;;20.10;81.20;;;;;;5095445;28;20031;-83
2022/05/13 01:18:10;;;;;;;4.95;3.92;;;20.10;81.40;;;;;;5095385;28;20069;-82
2022/05/13 01:20:46;;;;;;;5.60;4.00;;;20.10;81.70;;;;;;5113635;28;20387;-80
2022/05/13 01:23:19;;;;;;;7.80;4.50;;;20.10;81.30;;;;;;5113417;28;20473;-80
2022/05/13 01:25:51;;;;;;;6.25;4.80;;;20.10;81.50;;;;;;5113531;28;20469;-79
2022/05/13 01:28:20;;;;;;;9.00;5.40;;;20.10;81.80;;;;;;5113511;28;20023;-79
2022/05/13 01:30:49;;;;;;;8.13;6.05;;;20.10;81.80;;;;;;5113535;28;20077;-79
2022/05/13 01:33:16;;;;;;;10.15;5.60;;;20.00;81.50;;;;;;5113443;28;20026;-83
2022/05/13 01:35:46;;;;;;;8.80;5.88;;;20.00;81.60;;;;;;5116698;28;20016;-77
2022/05/13 01:38:13;;;;;;;10.10;6.15;;;20.00;81.70;;;;;;5098973;28;20061;-77
2022/05/13 01:40:39;;;;;;;11.80;5.80;;;20.00;81.90;;;;;;5098906;28;20020;-81
2022/05/13 01:43:06;;;;;;;9.02;6.22;;;20.00;82.10;;;;;;5117095;28;20020;-82
2022/05/13 01:45:32;;;;;;;9.15;4.93;;;19.90;82.20;;;;;;5099099;28;20057;-80
2022/05/13 01:47:58;;;;;;;8.25;5.05;;;19.90;82.40;;;;;;5117063;28;20074;-79
2022/05/13 01:50:26;;;;;;;7.57;5.10;;;19.90;82.70;;;;;;5098975;28;20027;-79
2022/05/13 01:52:54;;;;;;;7.30;5.35;;;19.90;83.10;;;;;;5116922;28;20019;-80
2022/05/13 01:55:20;;;;;;;6.57;4.90;;;20.00;83.40;;;;;;5117014;28;20512;-77
2022/05/13 01:57:46;;;;;;;8.20;5.97;;;20.00;83.50;;;;;;5098687;28;20032;-83
2022/05/13 02:00:12;;;;;;;8.95;4.88;;;20.00;83.50;;;;;;5098436;28;20044;-79
2022/05/13 02:05:24;;;;;;;16.42;6.35;;;20.00;83.60;;;;;;5116916;28;20076;-81
2022/05/13 02:07:50;;;;;;;10.27;6.00;;;20.00;83.40;;;;;;5116776;28;20038;-78
2022/05/13 02:10:17;;;;;;;10.02;6.22;;;20.00;83.60;;;;;;5098400;28;20028;-77
2022/05/13 02:12:43;;;;;;;8.77;5.72;;;20.00;83.70;;;;;;5116644;28;20030;-78
2022/05/13 02:15:09;;;;;;;13.80;5.00;;;19.90;83.80;;;;;;5098551;28;20413;-82
2022/05/13 02:17:36;;;;;;;7.05;5.15;;;19.90;83.90;;;;;;5098347;28;20096;-79
2022/05/13 02:20:03;;;;;;;7.07;4.75;;;19.90;84.10;;;;;;5098173;28;20031;-84
2022/05/13 02:22:29;;;;;;;6.57;5.00;;;19.90;84.10;;;;;;5098305;28;20020;-80
2022/05/13 02:24:55;;;;;;;10.82;5.78;;;19.90;84.50;;;;;;5098270;28;20015;-80
2022/05/13 02:27:21;;;;;;;10.65;6.40;;;19.90;84.70;;;;;;5116477;28;20476;-80
2022/05/13 02:29:47;;;;;;;9.90;5.40;;;19.90;84.90;;;;;;5116156;28;20028;-85
2022/05/13 02:32:12;;;;;;;8.43;5.75;;;19.90;85.00;;;;;;5116272;28;20107;-78
2022/05/13 02:34:38;;;;;;;7.78;5.25;;;19.90;85.00;;;;;;5097956;28;20028;-80
2022/05/13 02:37:05;;;;;;;5.07;4.57;;;19.90;85.20;;;;;;5116254;28;20028;-83
2022/05/13 02:39:31;;;;;;;7.00;4.97;;;19.90;85.40;;;;;;5116265;28;20027;-79
2022/05/13 02:41:56;;;;;;;5.03;4.22;;;19.90;85.60;;;;;;5097693;28;20061;-81
2022/05/13 02:44:23;;;;;;;6.30;4.35;;;19.90;85.70;;;;;;5115862;28;20465;-82
2022/05/13 02:46:48;;;;;;;4.88;4.35;;;19.90;85.80;;;;;;5115788;28;20024;-79
2022/05/13 02:49:14;;;;;;;15.57;5.93;;;19.90;85.90;;;;;;5097533;28;20473;-83
2022/05/13 02:51:41;;;;;;;8.10;5.07;;;19.90;85.80;;;;;;5115831;28;20024;-79
2022/05/13 02:54:07;;;;;;;6.20;5.03;;;19.90;85.50;;;;;;5097790;28;20027;-82
2022/05/13 02:56:34;;;;;;;7.80;4.45;;;19.80;85.40;;;;;;5097747;28;20028;-78
2022/05/13 02:59:00;;;;;;;10.43;4.97;;;19.80;85.40;;;;;;5097141;28;20493;-79
2022/05/13 03:01:26;;;;;;;7.22;5.05;;;19.80;85.50;;;;;;5097426;28;20445;-80
2022/05/13 03:03:52;;;;;;;5.72;4.20;;;19.80;85.60;;;;;;5115614;28;20020;-80
2022/05/13 03:06:21;;;;;;;9.70;5.25;;;19.80;85.80;;;;;;5121351;28;20020;-80
2022/05/13 03:08:48;;;;;;;6.60;5.93;;;19.80;85.70;;;;;;5101925;28;20023;-77
2022/05/13 03:11:14;;;;;;;6.95;5.50;;;19.80;85.60;;;;;;5084717;28;20640;-76
2022/05/13 03:13:40;;;;;;;8.10;5.38;;;19.80;85.60;;;;;;5102382;28;20031;-76
2022/05/13 03:16:14;;;;;;;7.28;5.00;;;19.80;85.70;;;;;;5081293;28;20036;-80
2022/05/13 03:18:41;;;;;;;8.40;5.70;;;19.80;85.70;;;;;;5095027;28;20042;-78
2022/05/13 03:21:08;;;;;;;8.00;5.15;;;19.80;85.90;;;;;;5094949;28;20070;-81
2022/05/13 03:23:34;;;;;;;6.47;5.13;;;19.80;85.90;;;;;;5076820;28;20020;-80
2022/05/13 03:26:00;;;;;;;8.68;5.63;;;19.80;85.90;;;;;;5076683;28;20088;-81
2022/05/13 03:28:26;;;;;;;13.20;5.40;;;19.70;85.70;;;;;;5094949;28;20051;-83
2022/05/13 03:30:52;;;;;;;7.85;5.45;;;19.70;85.90;;;;;;5094835;28;20427;-79
2022/05/13 03:33:19;;;;;;;7.32;5.50;;;19.70;85.80;;;;;;5084007;28;20024;-75
2022/05/13 03:35:46;;;;;;;9.95;6.07;;;19.70;85.90;;;;;;5101358;28;20076;-77
2022/05/13 03:38:12;;;;;;;9.13;5.82;;;19.70;86.00;;;;;;5081602;28;20358;-76
2022/05/13 03:40:38;;;;;;;7.05;4.70;;;19.70;86.20;;;;;;5098343;28;20024;-80
2022/05/13 03:43:05;;;;;;;8.82;5.63;;;19.70;86.20;;;;;;5098232;28;20405;-79
2022/05/13 03:45:34;;;;;;;8.02;5.55;;;19.70;86.20;;;;;;5097246;28;20016;-81
2022/05/13 03:48:00;;;;;;;11.25;5.05;;;19.70;86.20;;;;;;5096076;28;20031;-81
2022/05/13 03:50:27;;;;;;;8.25;5.90;;;19.70;86.30;;;;;;5079440;28;20030;-82
2022/05/13 03:52:53;;;;;;;9.50;5.68;;;19.70;86.50;;;;;;5077769;28;20020;-82
2022/05/13 03:55:19;;;;;;;8.52;5.88;;;19.70;86.70;;;;;;5094725;28;20078;-78
2022/05/13 03:57:45;;;;;;;20.50;5.72;;;19.70;86.60;;;;;;5094351;28;20069;-78
2022/05/13 04:00:13;;;;;;;7.70;6.38;;;19.70;86.50;;;;;;5094347;28;20039;-82
2022/05/13 04:02:39;;;;;;;8.43;6.22;;;19.70;86.40;;;;;;5076964;28;20158;-80
2022/05/13 04:10:35;;;;;;;6.72;5.80;;;19.70;86.30;;;;;;5095249;28;20031;-81
2022/05/13 04:18:29;;;;;;;;;;;19.70;86.30;;;;;;5094268;28;20540;-79
2022/05/13 04:20:55;;;;;;;7.25;6.22;;;19.70;86.60;;;;;;5093917;28;19943;-77
2022/05/13 04:23:20;;;;;;;8.93;6.50;;;19.70;86.20;;;;;;5093866;28;20027;-79
2022/05/13 04:25:47;;;;;;;6.70;5.72;;;19.70;86.20;;;;;;5093836;28;20027;-82
2022/05/13 04:28:13;;;;;;;9.18;6.07;;;19.70;86.40;;;;;;5093708;28;20389;-80
2022/05/13 04:30:39;;;;;;;23.23;6.40;;;19.70;86.40;;;;;;5076032;28;20024;-82
2022/05/13 04:33:05;;;;;;;9.23;6.10;;;19.70;86.50;;;;;;5093631;28;20077;-83
2022/05/13 04:35:31;;;;;;;8.75;5.55;;;19.70;86.20;;;;;;5093663;28;20089;-77
2022/05/13 04:37:57;;;;;;;9.55;6.25;;;19.60;86.20;;;;;;5093613;28;20020;-82
2022/05/13 04:40:23;;;;;;;8.77;6.07;;;19.60;86.10;;;;;;5093561;28;20078;-81
2022/05/13 04:42:49;;;;;;;9.70;6.90;;;19.60;86.20;;;;;;5093662;28;20047;-82
2022/05/13 04:45:25;;;;;;;7.38;5.57;;;19.60;86.30;;;;;;5075459;28;20024;-81
2022/05/13 04:48:16;;;;;;;8.85;6.00;;;19.60;86.40;;;;;;5093562;28;20431;-81
2022/05/13 04:51:08;;;;;;;10.07;7.32;;;19.60;86.70;;;;;;5093599;28;20491;-80
2022/05/13 04:53:36;;;;;;;8.30;6.65;;;19.60;86.70;;;;;;5072646;28;20035;-78
2022/05/13 04:56:04;;;;;;;9.85;5.82;;;19.60;86.70;;;;;;5075276;28;20020;-81
2022/05/13 04:58:30;;;;;;;11.70;5.60;;;19.70;86.80;;;;;;5093180;28;20040;-80
2022/05/13 05:00:58;;;;;;;13.68;7.03;;;19.70;86.90;;;;;;5093769;28;20485;-79
2022/05/13 05:03:29;;;;;;;8.43;6.10;;;19.70;86.80;;;;;;5075321;28;20044;-82
2022/05/13 05:05:57;;;;;;;9.20;6.00;;;19.70;86.70;;;;;;5093402;28;20020;-79
2022/05/13 05:08:23;;;;;;;13.60;6.88;;;19.60;86.50;;;;;;5093280;28;20099;-81
2022/05/13 05:10:49;;;;;;;13.23;6.68;;;19.70;86.70;;;;;;5078941;28;20484;-82
2022/05/13 05:13:27;;;;;;;6.32;5.57;;;19.70;86.90;;;;;;5097385;28;20099;-76
2022/05/13 05:15:53;;;;;;;7.25;5.90;;;19.70;86.80;;;;;;5097620;28;20044;-79
2022/05/13 05:18:19;;;;;;;11.88;5.28;;;19.70;86.80;;;;;;5079078;28;20385;-81
2022/05/13 05:20:46;;;;;;;6.88;5.38;;;19.70;86.90;;;;;;5097151;28;20020;-85
2022/05/13 05:23:18;;;;;;;7.28;5.47;;;19.70;86.90;;;;;;5079188;28;20054;-78
2022/05/13 05:25:45;;;;;;;6.88;5.40;;;19.80;86.80;;;;;;5078992;28;20032;-84
2022/05/13 05:28:11;;;;;;;6.32;5.35;;;19.80;86.90;;;;;;5097019;28;20027;-79
2022/05/13 05:30:38;;;;;;;11.50;5.78;;;19.80;87.10;;;;;;5097186;28;20028;-79
2022/05/13 05:33:04;;;;;;;6.80;5.38;;;19.80;87.30;;;;;;5078788;28;20020;-79
2022/05/13 05:35:30;;;;;;;7.38;5.03;;;19.90;87.50;;;;;;5096961;28;20098;-84
2022/05/13 05:37:56;;;;;;;8.40;5.45;;;19.90;87.60;;;;;;5096788;28;20099;-79
2022/05/13 05:40:23;;;;;;;8.65;6.10;;;20.00;87.80;;;;;;5096856;28;20100;-78
2022/05/13 05:42:49;;;;;;;6.93;5.40;;;20.10;88.00;;;;;;5096582;28;20016;-82
2022/05/13 05:45:17;;;;;;;8.40;5.18;;;20.10;88.20;;;;;;5096499;28;20016;-82
2022/05/13 05:47:44;;;;;;;11.43;5.45;;;20.20;88.30;;;;;;5096901;28;20020;-84
2022/05/13 05:50:13;;;;;;;8.32;5.85;;;20.20;88.40;;;;;;5078489;28;20028;-81
2022/05/13 05:52:39;;;;;;;8.52;5.45;;;20.30;88.10;;;;;;5096684;28;20031;-84
2022/05/13 05:58:01;;;;;;;12.77;5.57;;;20.40;87.80;;;;;;5096873;28;20057;-76
2022/05/13 06:00:29;;;;;;;7.03;5.57;;;20.50;87.20;;;;;;5079803;28;20116;-78
2022/05/13 06:02:55;;;;;;;8.63;5.88;;;20.50;87.20;;;;;;5105330;28;20027;-80
2022/05/13 06:05:21;;;;;;;8.25;5.65;;;20.50;86.90;;;;;;5087385;28;20063;-82
2022/05/13 06:07:49;;;;;;;6.40;5.40;;;20.60;86.80;;;;;;5098541;28;20047;-77
2022/05/13 06:10:15;;;;;;;7.78;6.05;;;20.60;86.90;;;;;;5098555;28;20161;-78
2022/05/13 06:12:41;;;;;;;7.53;5.72;;;20.70;87.10;;;;;;5103325;28;20024;-83
2022/05/13 06:15:08;;;;;;;5.90;5.18;;;20.70;87.00;;;;;;5116598;28;20031;-79
2022/05/13 06:17:33;;;;;;;9.05;6.35;;;20.80;87.00;;;;;;5116455;28;20041;-78
2022/05/13 06:20:04;;;;;;;7.68;4.97;;;20.80;86.90;;;;;;5109824;28;20032;-82
2022/05/13 06:22:29;;;;;;;9.90;6.20;;;20.80;86.50;;;;;;5116553;28;20027;-79
2022/05/13 06:24:55;;;;;;;8.88;6.47;;;20.90;87.20;;;;;;5098261;28;20538;-79
2022/05/13 06:27:21;;;;;;;9.40;6.53;;;21.00;87.80;;;;;;5116407;28;20031;-82
2022/05/13 06:29:47;;;;;;;10.95;7.15;;;21.10;88.50;;;;;;5105169;28;20474;-80
2022/05/13 06:32:13;;;;;;;9.32;6.72;;;21.20;88.40;;;;;;5095890;28;20115;-81
2022/05/13 06:34:39;;;;;;;8.30;6.53;;;21.30;88.60;;;;;;5077686;28;20385;-81
2022/05/13 06:37:05;;;;;;;10.82;6.38;;;21.40;87.90;;;;;;5094384;28;20096;-78
2022/05/13 06:39:30;;;;;;;12.32;7.05;;;21.40;87.30;;;;;;5114333;28;20024;-78
2022/05/13 06:41:56;;;;;;;8.88;6.30;;;21.50;86.20;;;;;;5104360;28;20069;-81
2022/05/13 06:44:22;;;;;;;7.63;6.00;;;21.50;85.20;;;;;;5115980;28;20148;-80
2022/05/13 06:46:48;;;;;;;9.13;6.20;;;21.40;85.50;;;;;;5115720;28;20024;-80
2022/05/13 06:49:14;;;;;;;11.57;6.40;;;21.50;85.70;;;;;;5115826;28;20043;-79
2022/05/13 06:51:40;;;;;;;10.18;6.53;;;21.60;85.80;;;;;;5115802;28;20096;-80
2022/05/13 06:54:09;;;;;;;8.75;5.18;;;21.60;85.50;;;;;;5097663;28;20020;-84
2022/05/13 06:56:37;;;;;;;8.90;5.88;;;21.70;85.70;;;;;;5092304;28;20024;-82
2022/05/13 06:59:05;;;;;;;6.72;5.45;;;21.80;85.10;;;;;;5095033;28;20097;-82
2022/05/13 07:01:31;;;;;;;13.55;6.32;;;21.80;84.90;;;;;;5094736;28;20455;-77
2022/05/13 07:03:56;;;;;;;9.35;5.53;;;21.90;84.30;;;;;;5107552;28;20081;-82
2022/05/13 07:06:22;;;;;;;7.88;6.28;;;22.00;84.90;;;;;;5095205;28;20028;-81
2022/05/13 07:08:52;;;;;;;10.13;6.05;;;22.00;84.80;;;;;;5103313;28;20119;-80
2022/05/13 07:11:18;;;;;;;7.65;5.65;;;22.10;84.90;;;;;;5109387;28;20028;-77
2022/05/13 07:13:44;;;;;;;11.10;5.78;;;22.20;84.10;;;;;;5115212;28;20435;-79
2022/05/13 07:16:11;;;;;;;8.48;5.78;;;22.20;82.90;;;;;;5109161;28;20108;-80
2022/05/13 07:18:38;;;;;;;8.48;5.55;;;22.30;82.50;;;;;;5085240;28;20027;-79
2022/05/13 07:21:05;;;;;;;7.80;6.03;;;22.30;82.30;;;;;;5100432;28;20573;-79
2022/05/13 07:23:31;;;;;;;6.75;5.43;;;22.30;80.70;;;;;;5094695;28;20443;-82
2022/05/13 07:25:57;;;;;;;8.32;5.88;;;22.30;82.10;;;;;;5096969;28;20058;-79
2022/05/13 07:28:23;;;;;;;8.93;6.32;;;22.40;81.90;;;;;;5115036;28;20015;-81
2022/05/13 07:30:49;;;;;;;6.78;5.47;;;22.40;81.50;;;;;;5096694;28;20019;-81
2022/05/13 07:33:16;;;;;;;9.52;6.32;;;22.50;81.80;;;;;;5114051;28;20043;-80
2022/05/13 07:35:42;;;;;;;11.98;6.05;;;22.50;81.00;;;;;;5096609;28;20020;-80
2022/05/13 07:38:09;;;;;;;7.72;5.95;;;22.60;80.60;;;;;;5114920;28;20023;-83
2022/05/13 07:43:19;;;;;;;8.65;5.53;;;22.60;79.00;;;;;;5114670;28;20035;-81
2022/05/13 07:45:45;;;;;;;10.20;6.70;;;22.70;79.90;;;;;;5114490;28;20417;-81
2022/05/13 07:48:11;;;;;;;7.63;6.10;;;22.80;80.20;;;;;;5114754;28;20020;-82
2022/05/13 07:50:37;;;;;;;7.82;6.30;;;22.90;80.50;;;;;;5095034;28;20027;-79
2022/05/13 07:53:03;;;;;;;8.60;6.63;;;23.00;79.40;;;;;;5114306;28;20023;-79
2022/05/13 07:55:29;;;;;;;10.25;8.13;;;23.10;78.50;;;;;;5114363;28;20023;-78
2022/05/13 07:57:55;;;;;;;11.32;6.72;;;23.10;76.50;;;;;;5114459;28;20023;-79
2022/05/13 08:00:26;;;;;;;10.02;6.55;;;23.20;76.50;;;;;;5114363;28;20602;-78
2022/05/13 08:03:07;;;;;;;8.48;7.13;;;23.30;76.50;;;;;;5095970;28;20103;-78
2022/05/13 08:05:38;;;;;;;11.80;7.10;;;23.40;76.00;;;;;;5114275;28;20445;-77
2022/05/13 08:08:19;;;;;;;8.57;6.38;;;23.40;75.90;;;;;;5114072;28;20465;-77
2022/05/13 08:10:47;;;;;;;7.60;5.85;;;23.60;76.00;;;;;;5114343;28;20030;-77
2022/05/13 08:13:13;;;;;;;8.75;6.32;;;23.70;76.70;;;;;;5114101;28;20020;-79
2022/05/13 08:15:40;;;;;;;7.28;5.60;;;23.80;75.70;;;;;;5114062;28;20031;-78
2022/05/13 08:18:07;;;;;;;10.10;6.13;;;23.90;75.50;;;;;;5095755;28;20028;-79
2022/05/13 08:20:34;;;;;;;10.30;7.03;;;24.00;75.00;;;;;;5113784;28;20026;-79
2022/05/13 08:22:59;;;;;;;8.15;6.03;;;24.10;73.30;;;;;;5113829;28;20031;-77
2022/05/13 08:25:25;;;;;;;7.53;5.70;;;24.20;74.80;;;;;;5113722;28;20020;-78
2022/05/13 08:27:52;;;;;;;6.88;5.82;;;24.40;75.20;;;;;;5095825;28;20015;-78
2022/05/13 08:30:18;;;;;;;8.38;6.13;;;24.60;73.80;;;;;;5095535;28;20031;-77
2022/05/13 08:32:45;;;;;;;9.07;5.70;;;24.60;71.60;;;;;;5113714;28;20020;-77
2022/05/13 08:35:12;;;;;;;7.18;5.53;;;24.70;69.40;;;;;;5113583;28;20538;-77
2022/05/13 08:37:48;;;;;;;7.90;4.78;;;24.70;68.20;;;;;;5113658;28;20027;-77
2022/05/13 08:40:35;;;;;;;7.63;6.28;;;24.60;68.90;;;;;;5113594;28;20067;-77
2022/05/13 08:43:09;;;;;;;9.18;5.38;;;24.60;70.10;;;;;;5095177;28;20028;-77
2022/05/13 08:45:37;;;;;;;8.55;5.65;;;24.70;69.60;;;;;;5095306;28;20026;-77
2022/05/13 08:48:08;;;;;;;10.50;5.88;;;24.80;69.10;;;;;;5113460;28;20020;-77
2022/05/13 08:51:02;;;;;;;8.90;5.50;;;24.80;67.10;;;;;;5113303;28;20027;-77
2022/05/13 08:53:40;;;;;;;13.27;5.72;;;24.80;67.20;;;;;;5113477;28;20024;-76
2022/05/13 08:56:09;;;;;;;9.90;4.93;;;24.80;65.50;;;;;;5095100;28;20077;-76
2022/05/13 08:58:42;;;;;;;6.75;5.35;;;24.80;68.40;;;;;;5113073;28;20043;-76
2022/05/13 09:01:12;;;;;;;14.63;5.37;;;24.90;69.70;;;;;;5113356;28;20421;-76
2022/05/13 09:03:50;;;;;;;10.48;5.32;;;25.10;70.40;;;;;;5113603;28;20016;-76
2022/05/13 09:06:39;;;;;;;8.13;5.22;;;25.30;69.70;;;;;;5113360;28;20020;-76
2022/05/13 09:09:07;;;;;;;9.50;5.20;;;25.40;68.60;;;;;;5113434;28;20098;-76
2022/05/13 09:12:01;;;;;;;6.85;5.30;;;25.50;66.00;;;;;;5113303;28;20028;-76
2022/05/13 09:14:31;;;;;;;6.05;4.63;;;25.50;64.30;;;;;;5113210;28;20030;-76
2022/05/13 09:17:19;;;;;;;5.10;4.30;;;25.60;63.70;;;;;;5095016;28;20028;-76
2022/05/13 09:20:15;;;;;;;5.97;5.22;;;25.60;64.30;;;;;;5094890;28;20019;-76
2022/05/13 09:22:54;;;;;;;7.20;4.70;;;25.60;63.90;;;;;;5113194;28;20024;-76
2022/05/13 09:25:24;;;;;;;7.57;4.72;;;25.60;63.70;;;;;;5113105;28;20106;-76
2022/05/13 09:28:05;;;;;;;5.40;4.28;;;25.70;65.70;;;;;;5113222;28;20024;-76
2022/05/13 09:30:39;;;;;;;5.60;4.70;;;25.70;66.80;;;;;;5113198;28;20051;-76
2022/05/13 09:33:39;;;;;;;8.55;4.80;;;25.80;65.80;;;;;;5113109;28;20031;-75
2022/05/13 09:36:08;;;;;;;6.72;5.57;;;26.00;66.00;;;;;;5112984;28;20020;-76
2022/05/13 09:38:46;;;;;;;6.78;4.65;;;26.20;66.30;;;;;;5112955;28;20024;-76
2022/05/13 09:41:22;;;;;;;7.95;4.32;;;26.40;64.00;;;;;;5113018;28;20488;-76
2022/05/13 09:43:54;;;;;;;6.68;4.65;;;26.50;63.20;;;;;;5112939;28;20107;-75
2022/05/13 09:46:22;;;;;;;6.22;4.63;;;26.60;60.30;;;;;;5112929;28;20024;-75
2022/05/13 09:48:58;;;;;;;5.90;4.30;;;26.80;62.60;;;;;;5112978;28;20028;-75
2022/05/13 09:51:37;;;;;;;5.38;4.15;;;26.90;62.40;;;;;;5094624;28;20043;-75
2022/05/13 09:54:15;;;;;;;9.48;4.05;;;27.00;61.10;;;;;;5112911;28;20020;-76
2022/05/13 09:56:48;;;;;;;5.20;3.83;;;27.10;58.50;;;;;;5116035;28;20024;-75
2022/05/13 09:59:21;;;;;;;8.38;4.03;;;27.10;58.50;;;;;;5094546;28;20446;-75
2022/05/13 10:01:47;;;;;;;4.65;3.58;;;26.90;56.00;;;;;;5096247;28;20027;-75
2022/05/13 10:04:19;;;;;;;4.85;3.85;;;26.90;56.20;;;;;;5096040;28;20074;-75
2022/05/13 10:06:44;;;;;;;6.30;3.88;;;26.70;56.10;;;;;;5094844;28;20024;-75
2022/05/13 10:15:20;;;;;;;4.63;3.60;;;26.50;56.70;;;;;;5095849;28;20075;-76
2022/05/13 10:17:51;;;;;;;4.40;3.63;;;26.50;58.30;;;;;;5095801;28;20020;-75
2022/05/13 10:20:29;;;;;;;5.78;3.10;;;26.40;57.40;;;;;;5095459;28;20050;-73
2022/05/13 10:23:09;;;;;;;9.10;2.88;;;26.40;55.40;;;;;;5095506;28;20016;-74
2022/05/13 10:25:56;;;;;;;3.55;2.95;;;26.40;55.70;;;;;;5095600;28;20016;-73
2022/05/13 10:28:58;;;;;;;4.07;2.83;;;26.30;56.00;;;;;;5095547;28;20074;-73
2022/05/13 10:31:28;;;;;;;5.43;3.17;;;26.30;55.50;;;;;;5057260;28;20510;-74
2022/05/13 10:34:05;;;;;;;6.22;3.05;;;26.20;56.00;;;;;;5095428;28;20031;-74
2022/05/13 10:36:39;;;;;;;19.30;3.90;;;26.20;55.30;;;;;;5095300;28;20020;-74
2022/05/13 10:39:24;;;;;;;2.60;2.40;;;26.20;55.70;;;;;;5095167;28;20086;-74
2022/05/13 10:41:58;;;;;;;4.93;2.30;;;26.20;56.60;;;;;;5095225;28;20504;-74
2022/05/13 10:44:27;;;;;;;3.13;2.22;;;26.30;55.90;;;;;;5095150;28;20077;-74
2022/05/13 10:47:04;;;;;;;2.92;2.22;;;26.30;55.70;;;;;;5095204;28;20020;-75
2022/05/13 10:49:38;;;;;;;5.47;1.92;;;26.40;54.20;;;;;;5095137;28;20024;-75
2022/05/13 10:52:18;;;;;;;6.00;3.05;;;26.40;56.10;;;;;;5094931;28;20024;-74
2022/05/13 10:54:56;;;;;;;4.07;2.10;;;26.30;55.50;;;;;;5094983;28;20020;-74
2022/05/13 10:57:54;;;;;;;2.63;2.42;;;26.20;53.00;;;;;;5094891;28;20027;-74
2022/05/13 11:00:30;;;;;;;2.53;2.00;;;26.20;54.20;;;;;;5012568;28;20053;-74
2022/05/13 11:03:14;;;;;;;5.93;2.33;;;26.20;56.50;;;;;;5012686;28;20034;-75
2022/05/13 11:06:01;;;;;;;3.45;2.60;;;26.20;55.30;;;;;;5012686;28;20523;-75
2022/05/13 11:08:30;;;;;;;7.45;2.63;;;26.30;55.20;;;;;;5011835;28;20396;-72
2022/05/13 11:11:26;;;;;;;3.08;2.22;;;26.30;53.40;;;;;;4995974;28;20068;-74
2022/05/13 11:14:01;;;;;;;5.93;2.28;;;26.40;54.00;;;;;;5012478;28;20021;-72
2022/05/13 11:16:45;;;;;;;5.53;2.38;;;26.40;53.90;;;;;;5012465;28;20049;-71
2022/05/13 11:19:19;;;;;;;3.08;2.38;;;26.60;53.70;;;;;;5012238;28;20069;-72
2022/05/13 11:22:01;;;;;;;3.00;2.22;;;26.70;52.90;;;;;;4996004;28;20022;-72
2022/05/13 11:28:00;;;;;;;7.10;2.40;;;27.10;52.30;;;;;;5012296;28;20076;-71
2022/05/13 11:30:50;;;;;;;3.00;2.20;;;27.40;53.30;;;;;;5012215;28;20042;-71
2022/05/13 11:33:23;;;;;;;3.72;2.63;;;27.60;52.60;;;;;;5012069;28;20069;-72
2022/05/13 11:36:13;;;;;;;4.47;2.90;;;27.80;52.20;;;;;;5048936;28;20051;-73
2022/05/13 11:39:00;;;;;;;4.97;2.70;;;28.00;51.70;;;;;;5092843;28;20040;-74
2022/05/13 11:41:51;;;;;;;3.50;2.25;;;28.00;48.80;;;;;;5092709;28;20028;-73
2022/05/13 11:44:30;;;;;;;6.18;2.53;;;27.90;48.40;;;;;;5080171;28;20036;-73
2022/05/13 11:47:04;;;;;;;4.97;2.50;;;27.90;48.00;;;;;;5094074;28;20023;-73
2022/05/13 11:49:35;;;;;;;7.40;2.90;;;27.70;47.50;;;;;;5094083;28;20039;-74
2022/05/13 11:52:12;;;;;;;5.05;2.95;;;27.50;48.50;;;;;;5094074;28;20032;-74
2022/05/13 11:54:43;;;;;;;5.03;2.75;;;27.40;49.10;;;;;;5093982;28;20035;-73
2022/05/13 11:57:18;;;;;;;3.03;2.42;;;27.30;49.30;;;;;;5093921;28;20111;-73
2022/05/13 11:59:46;;;;;;;3.03;2.55;;;27.30;48.80;;;;;;5108952;28;20131;-74
2022/05/13 12:02:33;;;;;;;19.00;2.65;;;27.30;50.20;;;;;;5113994;28;20026;-74
2022/05/13 12:05:07;;;;;;;3.45;2.30;;;27.40;50.20;;;;;;5095884;28;20047;-73
2022/05/13 12:07:57;;;;;;;3.85;2.65;;;27.40;52.00;;;;;;5114099;28;20465;-73
2022/05/13 12:10:32;;;;;;;6.00;2.55;;;27.50;49.70;;;;;;5099349;28;20037;-73
2022/05/13 12:13:11;;;;;;;4.20;3.33;;;27.60;50.30;;;;;;5095779;28;20508;-73
2022/05/13 12:16:01;;;;;;;5.18;2.47;;;27.60;49.10;;;;;;5114041;28;20055;-73
2022/05/13 12:18:45;;;;;;;4.30;3.05;;;27.60;50.10;;;;;;5113427;28;20033;-73
2022/05/13 12:21:34;;;;;;;2.40;1.98;;;27.50;48.90;;;;;;5095804;28;20097;-74
2022/05/13 12:24:24;;;;;;;6.55;2.50;;;27.50;48.60;;;;;;5095534;28;20031;-73
2022/05/13 12:26:54;;;;;;;4.80;2.72;;;27.50;51.00;;;;;;5104019;28;20042;-73
2022/05/13 12:29:40;;;;;;;4.00;2.60;;;27.40;48.30;;;;;;5095621;28;20471;-73
2022/05/13 12:32:19;;;;;;;3.85;2.33;;;27.40;51.70;;;;;;5113694;28;20103;-73
2022/05/13 12:37:46;;;;;;;3.65;2.60;;;27.50;52.10;;;;;;5113876;28;20431;-73
2022/05/13 12:40:34;;;;;;;5.78;2.30;;;27.50;50.70;;;;;;5095154;28;20077;-73
2022/05/13 12:43:20;;;;;;;4.18;2.60;;;27.60;50.70;;;;;;5113526;28;20415;-73
2022/05/13 12:46:15;;;;;;;5.97;2.92;;;27.60;49.30;;;;;;5095174;28;20031;-72
2022/05/13 12:49:03;;;;;;;4.63;2.33;;;27.50;50.50;;;;;;5113422;28;20419;-73
2022/05/13 12:51:54;;;;;;;6.18;2.50;;;27.40;51.00;;;;;;5095231;28;20385;-73
2022/05/13 12:54:24;;;;;;;5.72;2.88;;;27.40;51.40;;;;;;5071541;28;20446;-73
2022/05/13 12:56:56;;;;;;;5.45;2.88;;;27.30;51.70;;;;;;5095241;28;20127;-73
2022/05/13 12:59:33;;;;;;;3.85;3.08;;;27.20;50.20;;;;;;5091438;28;20070;-73
2022/05/13 13:02:03;;;;;;;6.07;3.20;;;27.10;50.50;;;;;;5093057;28;20093;-73
2022/05/13 13:04:32;;;;;;;4.38;3.28;;;27.10;50.70;;;;;;5092990;28;20062;-73
2022/05/13 13:07:11;;;;;;;5.07;3.38;;;27.00;50.20;;;;;;5091673;28;20028;-73
2022/05/13 13:09:45;;;;;;;6.82;3.63;;;26.90;50.70;;;;;;5092914;28;20521;-73
2022/05/13 13:12:29;;;;;;;5.15;3.03;;;26.80;51.10;;;;;;5091570;28;20028;-73
2022/05/13 13:15:21;;;;;;;5.78;3.05;;;26.70;50.80;;;;;;5092916;28;20020;-74
2022/05/13 13:17:54;;;;;;;13.65;3.47;;;26.60;51.30;;;;;;5092843;28;20032;-73
2022/05/13 13:20:21;;;;;;;;;;;26.50;51.40;;;;;;5093293;28;20370;-74
2022/05/13 13:22:52;;;;;;;12.70;4.05;;;26.40;51.60;;;;;;5092716;28;19904;-74
2022/05/13 13:25:53;;;;;;;7.47;4.13;;;26.30;51.40;;;;;;5092799;28;20074;-74
2022/05/13 13:28:31;;;;;;;5.32;3.45;;;26.20;51.30;;;;;;5010653;28;20480;-74
2022/05/13 13:31:02;;;;;;;5.15;3.20;;;26.00;51.50;;;;;;5012861;28;20627;-74
2022/05/13 13:33:34;;;;;;;7.28;4.30;;;25.90;51.60;;;;;;5014598;28;20033;-74
2022/05/13 13:36:20;;;;;;;7.07;3.78;;;25.90;51.80;;;;;;5014454;28;20474;-74
2022/05/13 13:38:49;;;;;;;6.85;3.80;;;25.90;52.40;;;;;;5014399;28;20037;-75